Strona główna
METAR-TAF:

METAR-TAF

Lotnisko :

Port lotniczy Hawarden

Hawarden, Walia

Szerokość geograficzna: 53-10N, Długość geograficzna: 002-59W, wysokość: 10 m

Aktualna obserwacja pogody

Raport powstał 31 minut temu, godzina 18:50 UTC
Wiatr 11 kt od zachód
Temperatura 18°C
Wilgotność 64%
Ciśnienie 1010 hPa
Widzialność 10 km lub więcej
Rozproszone chmury na wysokości 3700 ft

METAR: EGNR 181850Z 26011KT 9999 SCT037 18/11 Q1010

czas: 20:21 (19:21 UTC)

Prognoza

Raport powstał 2 godziny i 18 minut temu, godzina 17:03 UTC
Prognoza ważna od 18 godzina 18 UTC do 18 godzina 20 UTC
Wiatr 11 kt od zachodnio-południowy zachód
Widzialność 10 km lub więcej
Mało chmury na wysokości 3500 ft

TAF: EGNR 181703Z 1818/1820 25011KT 9999 FEW035

Obserwacja i prognoza pogody dla ponad 4000 lotnisk (raport METAR i TAF).

Dostępne stacje oznaczono żółtymi i czerwonymi punktami na mapie.

Najedź kursorem aby zobaczyć nazwę stacji.

Kliknij aby zobaczyć obserwacje i prognozy pogody.

Aby zmienić mapę: kliknij na zielony przycisk z czarnym krzyżykiem, aby powiększyć; na zielony przycisk z myślnikiem, aby pomniejszyć; na zielone strzałki, aby przejść do map sąsiednich.


METAR-TAF: